Hampton, VA (23666)

12:33 PM EDT on August 24, 2016 (GMT -0400)
Northampton | | Change Station

Elev 23 ft 37.05 °N, 76.42 °W | Updated 3 minutes ago

Partly Cloudy
Partly Cloudy
82.2 °F
Feels Like 82 °F
N
4.5
Wind Variable Wind from East
Gusts 6.0 mph

Today
High -- | Low -- °F
--% Chance of Precip.
Yesterday
High -- | Low -- °F
Precip. -- in
Pressure 30.31 in
Visibility 10.0 miles
Clouds Few 4000 ft
Few 26000 ft
Heat Index 82 °F
Dew Point 58 °F
Humidity 43%
Rainfall 0.00 in
Snow Depth Not available.
6:30 AM 7:44 PM
Waning Gibbous, 55% visible
METAR KLFI 241558Z 07009KT 10SM FEW040 FEW260 27/15 A3029 RMK AO2A SLP264 T02690146 $
Pressure 30.31 in
Visibility 10.0 miles
Clouds Few 4000 ft
Few 26000 ft
Heat Index 82 °F
Dew Point 58 °F
Humidity 43%
Rainfall 0.00 in
Snow Depth Not available.
6:30 AM 7:44 PM
Waning Gibbous, 55% visible
METAR KLFI 241558Z 07009KT 10SM FEW040 FEW260 27/15 A3029 RMK AO2A SLP264 T02690146 $

10-Day Weather Forecast

Almanac

Astronomy

Aug. 24, 2016 Rise Set
Actual Time
Civil Twilight
Nautical Twilight
Astronomical Twilight
Moon
Length of Visible Light
Length of Day
Tomorrow will be .
, % of the Moon is Illuminated

Today's Extremes

State Highs State Lows

Community

WunderPhotos

Upload Photos

1,934,649 photos uploaded!

WunderBlog® & News

Nearby

Air Quality

  Air Quality AQ Index Pollutant
Not available.

Snow Depth

Station Depth Elevation

Earthquake Activity

City Distance Mag. Time & Date
Minimum magnitude displayed is 2.5.

Coastal Water Temperatures

Place Temperature

Stations

Nearby Weather Stations

Station Location Temp. Windchill Dew Point Humidity Wind Precip. Elev Updated Type
                   

Watches & Warnings

There are currently no watches in effect.